sensor_id;sensor_type;location;lat;lon;timestamp;P1;P2;P0
67376;PMS7003;54261;46.086;6.588;2023-04-03T00:03:39;16.50;14.50;10.00
67376;PMS7003;54261;46.086;6.588;2023-04-03T00:08:42;14.75;14.75;10.75
67376;PMS7003;54261;46.086;6.588;2023-04-03T00:13:44;12.50;10.25;7.25
67376;PMS7003;54261;46.086;6.588;2023-04-03T00:18:46;12.00;12.00;8.00
67376;PMS7003;54261;46.086;6.588;2023-04-03T00:23:48;12.50;12.00;9.00
67376;PMS7003;54261;46.086;6.588;2023-04-03T00:28:49;14.25;13.00;10.00
67376;PMS7003;54261;46.086;6.588;2023-04-03T00:33:51;12.00;12.00;10.25
67376;PMS7003;54261;46.086;6.588;2023-04-03T00:38:53;21.25;17.00;13.00
67376;PMS7003;54261;46.086;6.588;2023-04-03T00:43:55;17.00;15.75;12.00
67376;PMS7003;54261;46.086;6.588;2023-04-03T00:48:57;17.50;13.50;10.75
67376;PMS7003;54261;46.086;6.588;2023-04-03T00:53:59;17.00;14.25;11.00
67376;PMS7003;54261;46.086;6.588;2023-04-03T00:59:06;10.25;10.25;7.00
67376;PMS7003;54261;46.086;6.588;2023-04-03T01:04:26;11.25;11.25;9.00
67376;PMS7003;54261;46.086;6.588;2023-04-03T01:09:29;12.50;12.50;8.25
67376;PMS7003;54261;46.086;6.588;2023-04-03T01:14:31;19.50;16.00;11.25
67376;PMS7003;54261;46.086;6.588;2023-04-03T01:19:33;22.00;18.75;11.00
67376;PMS7003;54261;46.086;6.588;2023-04-03T01:24:40;25.00;21.25;12.25
67376;PMS7003;54261;46.086;6.588;2023-04-03T01:29:44;12.25;11.50;7.75
67376;PMS7003;54261;46.086;6.588;2023-04-03T01:34:47;14.00;14.00;10.00
67376;PMS7003;54261;46.086;6.588;2023-04-03T01:39:49;6.00;5.50;4.00
67376;PMS7003;54261;46.086;6.588;2023-04-03T01:44:51;3.00;3.00;2.00
67376;PMS7003;54261;46.086;6.588;2023-04-03T01:49:52;5.00;3.00;2.00
67376;PMS7003;54261;46.086;6.588;2023-04-03T01:54:54;3.50;3.50;3.50
67376;PMS7003;54261;46.086;6.588;2023-04-03T01:59:56;4.25;3.00;2.50
67376;PMS7003;54261;46.086;6.588;2023-04-03T02:04:58;6.50;4.50;4.25
67376;PMS7003;54261;46.086;6.588;2023-04-03T02:10:00;7.00;6.00;3.25
67376;PMS7003;54261;46.086;6.588;2023-04-03T02:15:02;6.00;4.25;3.50
67376;PMS7003;54261;46.086;6.588;2023-04-03T02:20:04;3.00;3.00;2.50
67376;PMS7003;54261;46.086;6.588;2023-04-03T02:25:07;6.75;6.75;3.25
67376;PMS7003;54261;46.086;6.588;2023-04-03T02:30:09;4.75;4.75;4.00
67376;PMS7003;54261;46.086;6.588;2023-04-03T02:35:12;6.00;6.00;4.00
67376;PMS7003;54261;46.086;6.588;2023-04-03T02:40:14;6.00;4.75;3.50
67376;PMS7003;54261;46.086;6.588;2023-04-03T02:45:16;7.00;7.00;3.00
67376;PMS7003;54261;46.086;6.588;2023-04-03T02:50:18;7.25;6.75;6.00
67376;PMS7003;54261;46.086;6.588;2023-04-03T02:55:20;13.75;10.50;7.00
67376;PMS7003;54261;46.086;6.588;2023-04-03T03:00:24;8.25;7.00;6.00
67376;PMS7003;54261;46.086;6.588;2023-04-03T03:05:26;7.75;7.25;5.50
67376;PMS7003;54261;46.086;6.588;2023-04-03T03:10:28;7.50;4.75;2.00
67376;PMS7003;54261;46.086;6.588;2023-04-03T03:15:30;12.25;12.25;7.50
67376;PMS7003;54261;46.086;6.588;2023-04-03T03:20:32;16.00;13.00;10.00
67376;PMS7003;54261;46.086;6.588;2023-04-03T03:25:37;10.50;9.00;7.75
67376;PMS7003;54261;46.086;6.588;2023-04-03T03:30:41;10.50;9.50;6.75
67376;PMS7003;54261;46.086;6.588;2023-04-03T03:35:43;6.00;6.00;3.00
67376;PMS7003;54261;46.086;6.588;2023-04-03T03:40:47;5.75;5.75;3.00
67376;PMS7003;54261;46.086;6.588;2023-04-03T03:45:52;7.50;6.50;6.00
67376;PMS7003;54261;46.086;6.588;2023-04-03T03:50:55;9.75;7.00;4.50
67376;PMS7003;54261;46.086;6.588;2023-04-03T03:56:02;6.00;6.00;4.00
67376;PMS7003;54261;46.086;6.588;2023-04-03T04:01:05;7.00;7.00;6.00
67376;PMS7003;54261;46.086;6.588;2023-04-03T04:06:13;5.00;5.00;4.00
67376;PMS7003;54261;46.086;6.588;2023-04-03T04:11:16;6.75;6.75;4.00
67376;PMS7003;54261;46.086;6.588;2023-04-03T04:16:20;5.50;4.50;4.00
67376;PMS7003;54261;46.086;6.588;2023-04-03T04:21:22;5.75;5.75;3.00
67376;PMS7003;54261;46.086;6.588;2023-04-03T04:26:26;7.00;5.50;3.00
67376;PMS7003;54261;46.086;6.588;2023-04-03T04:31:28;7.75;7.75;6.00
67376;PMS7003;54261;46.086;6.588;2023-04-03T04:36:30;7.25;7.25;4.50
67376;PMS7003;54261;46.086;6.588;2023-04-03T04:41:32;4.00;4.00;3.00
67376;PMS7003;54261;46.086;6.588;2023-04-03T04:46:36;5.75;5.75;4.00
67376;PMS7003;54261;46.086;6.588;2023-04-03T04:51:39;3.75;3.00;2.00
67376;PMS7003;54261;46.086;6.588;2023-04-03T04:56:54;5.00;5.00;3.00
67376;PMS7003;54261;46.086;6.588;2023-04-03T05:01:56;4.75;4.75;3.25
67376;PMS7003;54261;46.086;6.588;2023-04-03T05:06:59;7.00;6.00;4.00
67376;PMS7003;54261;46.086;6.588;2023-04-03T05:12:04;7.50;7.00;3.50
67376;PMS7003;54261;46.086;6.588;2023-04-03T05:17:12;4.50;4.50;3.00
67376;PMS7003;54261;46.086;6.588;2023-04-03T05:22:17;7.50;7.50;7.00
67376;PMS7003;54261;46.086;6.588;2023-04-03T05:27:19;17.75;17.75;13.00
67376;PMS7003;54261;46.086;6.588;2023-04-03T05:32:26;14.75;10.50;6.75
67376;PMS7003;54261;46.086;6.588;2023-04-03T05:37:44;10.25;9.00;6.00
67376;PMS7003;54261;46.086;6.588;2023-04-03T05:42:48;12.75;10.50;6.75
67376;PMS7003;54261;46.086;6.588;2023-04-03T05:47:52;16.75;14.00;8.50
67376;PMS7003;54261;46.086;6.588;2023-04-03T05:52:55;41.25;30.75;11.50
67376;PMS7003;54261;46.086;6.588;2023-04-03T05:58:02;35.50;28.00;15.00
67376;PMS7003;54261;46.086;6.588;2023-04-03T06:03:04;32.75;22.50;13.50
67376;PMS7003;54261;46.086;6.588;2023-04-03T06:08:07;59.00;37.50;14.50
67376;PMS7003;54261;46.086;6.588;2023-04-03T06:13:10;23.75;19.50;11.50
67376;PMS7003;54261;46.086;6.588;2023-04-03T06:18:12;17.00;14.25;9.25
67376;PMS7003;54261;46.086;6.588;2023-04-03T06:23:14;19.75;19.75;12.00
67376;PMS7003;54261;46.086;6.588;2023-04-03T06:28:16;14.75;14.75;10.00
67376;PMS7003;54261;46.086;6.588;2023-04-03T06:33:18;17.75;15.75;11.00
67376;PMS7003;54261;46.086;6.588;2023-04-03T06:38:19;19.00;16.00;12.00
67376;PMS7003;54261;46.086;6.588;2023-04-03T06:43:21;25.25;23.75;14.25
67376;PMS7003;54261;46.086;6.588;2023-04-03T06:48:25;23.75;22.25;14.75
67376;PMS7003;54261;46.086;6.588;2023-04-03T06:53:26;28.75;18.50;12.25
67376;PMS7003;54261;46.086;6.588;2023-04-03T06:58:28;12.25;12.25;7.75
67376;PMS7003;54261;46.086;6.588;2023-04-03T07:03:30;20.25;17.75;12.75
67376;PMS7003;54261;46.086;6.588;2023-04-03T07:08:34;11.75;11.75;9.00
67376;PMS7003;54261;46.086;6.588;2023-04-03T07:13:36;19.00;17.00;12.25
67376;PMS7003;54261;46.086;6.588;2023-04-03T07:18:38;16.50;13.25;10.00
67376;PMS7003;54261;46.086;6.588;2023-04-03T07:23:40;10.75;10.75;7.00
67376;PMS7003;54261;46.086;6.588;2023-04-03T07:28:42;17.25;16.75;12.50
67376;PMS7003;54261;46.086;6.588;2023-04-03T07:33:45;14.75;14.75;9.75
67376;PMS7003;54261;46.086;6.588;2023-04-03T07:38:47;15.50;14.50;10.50
67376;PMS7003;54261;46.086;6.588;2023-04-03T07:43:49;17.75;15.00;10.50
67376;PMS7003;54261;46.086;6.588;2023-04-03T07:48:51;17.75;16.75;12.25
67376;PMS7003;54261;46.086;6.588;2023-04-03T07:53:53;18.75;17.00;11.25
67376;PMS7003;54261;46.086;6.588;2023-04-03T07:58:55;19.00;18.25;13.25
67376;PMS7003;54261;46.086;6.588;2023-04-03T08:03:56;26.00;24.00;16.25
67376;PMS7003;54261;46.086;6.588;2023-04-03T08:08:58;14.25;13.25;8.25
67376;PMS7003;54261;46.086;6.588;2023-04-03T08:14:00;25.50;19.75;13.00
67376;PMS7003;54261;46.086;6.588;2023-04-03T08:19:03;25.50;23.00;17.75
67376;PMS7003;54261;46.086;6.588;2023-04-03T08:24:10;19.75;18.25;14.50
67376;PMS7003;54261;46.086;6.588;2023-04-03T08:29:12;20.00;19.25;15.00
67376;PMS7003;54261;46.086;6.588;2023-04-03T08:34:14;17.50;16.50;11.00
67376;PMS7003;54261;46.086;6.588;2023-04-03T08:39:16;18.50;17.25;13.75
67376;PMS7003;54261;46.086;6.588;2023-04-03T08:49:28;23.00;20.25;14.00
67376;PMS7003;54261;46.086;6.588;2023-04-03T08:54:35;21.00;19.75;13.50
67376;PMS7003;54261;46.086;6.588;2023-04-03T08:59:42;18.50;16.50;12.25
67376;PMS7003;54261;46.086;6.588;2023-04-03T09:04:44;16.75;16.50;11.00
67376;PMS7003;54261;46.086;6.588;2023-04-03T09:09:46;18.50;14.75;11.25
67376;PMS7003;54261;46.086;6.588;2023-04-03T09:14:59;14.00;12.00;9.75
67376;PMS7003;54261;46.086;6.588;2023-04-03T09:25:17;11.25;11.25;7.50
67376;PMS7003;54261;46.086;6.588;2023-04-03T09:30:24;6.75;6.75;6.00
67376;PMS7003;54261;46.086;6.588;2023-04-03T09:35:28;7.00;7.00;5.75
67376;PMS7003;54261;46.086;6.588;2023-04-03T09:40:50;5.00;5.00;3.00
67376;PMS7003;54261;46.086;6.588;2023-04-03T09:51:31;5.50;5.50;3.00
67376;PMS7003;54261;46.086;6.588;2023-04-03T09:56:33;4.00;4.00;3.50
67376;PMS7003;54261;46.086;6.588;2023-04-03T10:01:37;5.00;5.00;3.00
67376;PMS7003;54261;46.086;6.588;2023-04-03T10:12:07;5.75;5.75;5.00
67376;PMS7003;54261;46.086;6.588;2023-04-03T10:17:18;5.00;5.00;3.00
67376;PMS7003;54261;46.086;6.588;2023-04-03T10:28:27;20.25;18.50;14.75
67376;PMS7003;54261;46.086;6.588;2023-04-03T10:39:00;19.00;17.00;14.25
67376;PMS7003;54261;46.086;6.588;2023-04-03T10:55:39;2.75;2.75;1.75
67376;PMS7003;54261;46.086;6.588;2023-04-03T11:00:49;5.75;5.00;4.00
67376;PMS7003;54261;46.086;6.588;2023-04-03T11:05:54;1.25;1.25;0.25
67376;PMS7003;54261;46.086;6.588;2023-04-03T11:11:00;7.00;5.75;4.75
67376;PMS7003;54261;46.086;6.588;2023-04-03T11:16:08;7.00;7.00;4.25
67376;PMS7003;54261;46.086;6.588;2023-04-03T11:21:12;7.00;5.75;3.00
67376;PMS7003;54261;46.086;6.588;2023-04-03T11:26:24;5.50;5.50;4.00
67376;PMS7003;54261;46.086;6.588;2023-04-03T11:37:00;4.50;4.50;3.00
67376;PMS7003;54261;46.086;6.588;2023-04-03T11:47:46;7.00;7.00;6.00
67376;PMS7003;54261;46.086;6.588;2023-04-03T11:58:02;7.00;7.00;5.75
67376;PMS7003;54261;46.086;6.588;2023-04-03T12:08:48;13.00;11.00;8.00
67376;PMS7003;54261;46.086;6.588;2023-04-03T12:34:49;5.75;5.75;5.00
67376;PMS7003;54261;46.086;6.588;2023-04-03T12:45:19;10.25;7.75;5.00
67376;PMS7003;54261;46.086;6.588;2023-04-03T12:50:31;5.75;4.50;3.00
67376;PMS7003;54261;46.086;6.588;2023-04-03T12:55:37;3.00;3.00;2.50
67376;PMS7003;54261;46.086;6.588;2023-04-03T13:00:39;3.25;3.00;2.25
67376;PMS7003;54261;46.086;6.588;2023-04-03T13:05:44;4.00;4.00;3.00
67376;PMS7003;54261;46.086;6.588;2023-04-03T13:15:54;6.75;6.00;3.00
67376;PMS7003;54261;46.086;6.588;2023-04-03T13:20:58;3.25;2.00;2.00
67376;PMS7003;54261;46.086;6.588;2023-04-03T13:26:06;6.00;4.00;3.00
67376;PMS7003;54261;46.086;6.588;2023-04-03T13:31:17;4.25;4.25;3.00
67376;PMS7003;54261;46.086;6.588;2023-04-03T13:36:21;1.00;1.00;1.00
67376;PMS7003;54261;46.086;6.588;2023-04-03T13:41:34;4.25;3.25;2.50
67376;PMS7003;54261;46.086;6.588;2023-04-03T13:46:39;3.00;3.00;2.00
67376;PMS7003;54261;46.086;6.588;2023-04-03T13:51:41;4.00;3.00;2.00
67376;PMS7003;54261;46.086;6.588;2023-04-03T13:56:43;7.75;7.75;6.00
67376;PMS7003;54261;46.086;6.588;2023-04-03T14:01:46;3.00;3.00;1.75
67376;PMS7003;54261;46.086;6.588;2023-04-03T14:07:03;3.00;3.00;3.00
67376;PMS7003;54261;46.086;6.588;2023-04-03T14:12:06;0.00;0.00;0.00
67376;PMS7003;54261;46.086;6.588;2023-04-03T14:17:32;4.00;4.00;3.00
67376;PMS7003;54261;46.086;6.588;2023-04-03T14:22:35;4.25;4.00;3.50
67376;PMS7003;54261;46.086;6.588;2023-04-03T14:27:40;8.00;4.50;3.00
67376;PMS7003;54261;46.086;6.588;2023-04-03T14:32:44;1.00;0.75;0.25
67376;PMS7003;54261;46.086;6.588;2023-04-03T14:37:47;6.00;5.50;4.00
67376;PMS7003;54261;46.086;6.588;2023-04-03T14:42:49;0.75;0.25;0.25
67376;PMS7003;54261;46.086;6.588;2023-04-03T14:47:52;7.00;5.50;3.75
67376;PMS7003;54261;46.086;6.588;2023-04-03T14:52:58;2.00;0.25;0.25
67376;PMS7003;54261;46.086;6.588;2023-04-03T14:58:00;5.50;3.75;2.00
67376;PMS7003;54261;46.086;6.588;2023-04-03T15:03:02;3.00;2.00;1.50
67376;PMS7003;54261;46.086;6.588;2023-04-03T15:08:08;1.50;1.50;1.50
67376;PMS7003;54261;46.086;6.588;2023-04-03T15:13:19;5.25;5.25;4.00
67376;PMS7003;54261;46.086;6.588;2023-04-03T15:18:22;2.75;2.75;2.25
67376;PMS7003;54261;46.086;6.588;2023-04-03T15:23:29;6.25;4.00;3.75
67376;PMS7003;54261;46.086;6.588;2023-04-03T15:28:38;7.25;7.25;4.75
67376;PMS7003;54261;46.086;6.588;2023-04-03T15:33:41;8.00;7.75;5.25
67376;PMS7003;54261;46.086;6.588;2023-04-03T15:38:43;5.00;5.00;4.50
67376;PMS7003;54261;46.086;6.588;2023-04-03T15:43:45;5.00;5.00;3.00
67376;PMS7003;54261;46.086;6.588;2023-04-03T15:48:47;6.00;6.00;4.00
67376;PMS7003;54261;46.086;6.588;2023-04-03T15:53:49;4.00;4.00;3.75
67376;PMS7003;54261;46.086;6.588;2023-04-03T15:58:50;5.75;5.75;3.50
67376;PMS7003;54261;46.086;6.588;2023-04-03T16:03:52;3.75;3.00;2.25
67376;PMS7003;54261;46.086;6.588;2023-04-03T16:08:54;6.75;6.75;6.00
67376;PMS7003;54261;46.086;6.588;2023-04-03T16:13:59;3.50;2.50;1.75
67376;PMS7003;54261;46.086;6.588;2023-04-03T16:19:01;6.25;6.25;4.25
67376;PMS7003;54261;46.086;6.588;2023-04-03T16:24:04;6.75;6.75;5.25
67376;PMS7003;54261;46.086;6.588;2023-04-03T16:29:05;35.00;33.50;25.50
67376;PMS7003;54261;46.086;6.588;2023-04-03T16:34:07;12.50;9.50;7.75
67376;PMS7003;54261;46.086;6.588;2023-04-03T16:39:09;33.25;33.25;24.00
67376;PMS7003;54261;46.086;6.588;2023-04-03T16:44:11;7.00;5.50;5.25
67376;PMS7003;54261;46.086;6.588;2023-04-03T16:49:13;6.75;6.75;5.75
67376;PMS7003;54261;46.086;6.588;2023-04-03T16:54:15;9.75;8.00;6.00
67376;PMS7003;54261;46.086;6.588;2023-04-03T16:59:16;6.75;5.75;3.75
67376;PMS7003;54261;46.086;6.588;2023-04-03T17:04:18;14.25;12.75;8.50
67376;PMS7003;54261;46.086;6.588;2023-04-03T17:09:20;7.50;6.50;5.00
67376;PMS7003;54261;46.086;6.588;2023-04-03T17:14:23;6.00;6.00;3.00
67376;PMS7003;54261;46.086;6.588;2023-04-03T17:19:25;11.00;10.75;8.00
67376;PMS7003;54261;46.086;6.588;2023-04-03T17:24:29;24.50;24.00;15.50
67376;PMS7003;54261;46.086;6.588;2023-04-03T17:29:31;45.25;40.50;28.25
67376;PMS7003;54261;46.086;6.588;2023-04-03T17:34:33;8.75;8.75;7.00
67376;PMS7003;54261;46.086;6.588;2023-04-03T17:39:36;11.50;11.50;8.00
67376;PMS7003;54261;46.086;6.588;2023-04-03T17:44:38;10.25;10.00;7.00
67376;PMS7003;54261;46.086;6.588;2023-04-03T17:49:39;6.75;6.50;6.00
67376;PMS7003;54261;46.086;6.588;2023-04-03T17:54:42;15.25;14.75;8.75
67376;PMS7003;54261;46.086;6.588;2023-04-03T17:59:43;13.75;13.75;11.00
67376;PMS7003;54261;46.086;6.588;2023-04-03T18:04:45;16.25;13.25;11.00
67376;PMS7003;54261;46.086;6.588;2023-04-03T18:09:47;10.25;10.25;7.25
67376;PMS7003;54261;46.086;6.588;2023-04-03T18:14:51;10.50;10.00;7.25
67376;PMS7003;54261;46.086;6.588;2023-04-03T18:19:53;9.00;9.00;7.75
67376;PMS7003;54261;46.086;6.588;2023-04-03T18:24:55;20.00;18.00;13.00
67376;PMS7003;54261;46.086;6.588;2023-04-03T18:29:59;17.00;16.50;12.00
67376;PMS7003;54261;46.086;6.588;2023-04-03T18:35:03;16.25;11.75;7.25
67376;PMS7003;54261;46.086;6.588;2023-04-03T18:40:06;16.00;11.25;9.50
67376;PMS7003;54261;46.086;6.588;2023-04-03T18:45:09;10.00;10.00;7.00
67376;PMS7003;54261;46.086;6.588;2023-04-03T18:50:12;17.25;15.50;13.00
67376;PMS7003;54261;46.086;6.588;2023-04-03T18:55:14;11.50;9.00;7.00
67376;PMS7003;54261;46.086;6.588;2023-04-03T19:00:19;10.50;10.00;6.50
67376;PMS7003;54261;46.086;6.588;2023-04-03T19:05:21;13.25;13.25;9.50
67376;PMS7003;54261;46.086;6.588;2023-04-03T19:10:24;11.25;11.25;8.50
67376;PMS7003;54261;46.086;6.588;2023-04-03T19:15:27;19.25;11.00;8.75
67376;PMS7003;54261;46.086;6.588;2023-04-03T19:20:29;12.50;9.75;6.50
67376;PMS7003;54261;46.086;6.588;2023-04-03T19:25:31;5.75;5.75;2.00
67376;PMS7003;54261;46.086;6.588;2023-04-03T19:30:33;11.25;10.50;7.50
67376;PMS7003;54261;46.086;6.588;2023-04-03T19:35:38;11.25;11.25;9.00
67376;PMS7003;54261;46.086;6.588;2023-04-03T19:40:41;26.50;25.50;20.25
67376;PMS7003;54261;46.086;6.588;2023-04-03T19:45:46;15.25;15.00;12.00
67376;PMS7003;54261;46.086;6.588;2023-04-03T19:50:48;11.75;11.25;10.00
67376;PMS7003;54261;46.086;6.588;2023-04-03T19:55:50;10.75;10.75;9.00
67376;PMS7003;54261;46.086;6.588;2023-04-03T20:00:52;12.50;11.25;9.25
67376;PMS7003;54261;46.086;6.588;2023-04-03T20:05:55;11.25;11.25;9.00
67376;PMS7003;54261;46.086;6.588;2023-04-03T20:10:58;5.75;5.75;5.75
67376;PMS7003;54261;46.086;6.588;2023-04-03T20:16:00;9.50;9.50;6.50
67376;PMS7003;54261;46.086;6.588;2023-04-03T20:21:06;14.50;13.50;10.25
67376;PMS7003;54261;46.086;6.588;2023-04-03T20:26:08;7.50;6.50;6.00
67376;PMS7003;54261;46.086;6.588;2023-04-03T20:31:16;13.50;13.00;9.00
67376;PMS7003;54261;46.086;6.588;2023-04-03T20:36:18;14.00;13.00;9.25
67376;PMS7003;54261;46.086;6.588;2023-04-03T20:41:22;20.25;18.75;13.00
67376;PMS7003;54261;46.086;6.588;2023-04-03T20:46:24;11.00;11.00;8.25
67376;PMS7003;54261;46.086;6.588;2023-04-03T20:51:43;9.00;9.00;7.25
67376;PMS7003;54261;46.086;6.588;2023-04-03T20:56:44;12.50;10.50;8.00
67376;PMS7003;54261;46.086;6.588;2023-04-03T21:01:50;13.50;10.25;8.25
67376;PMS7003;54261;46.086;6.588;2023-04-03T21:23:13;12.50;10.75;8.50
67376;PMS7003;54261;46.086;6.588;2023-04-03T21:28:15;9.75;9.00;6.00
67376;PMS7003;54261;46.086;6.588;2023-04-03T21:33:18;14.50;12.50;9.50
67376;PMS7003;54261;46.086;6.588;2023-04-03T21:38:19;8.75;8.75;7.75
67376;PMS7003;54261;46.086;6.588;2023-04-03T21:43:21;14.50;11.50;8.50
67376;PMS7003;54261;46.086;6.588;2023-04-03T21:48:23;12.25;12.25;9.00
67376;PMS7003;54261;46.086;6.588;2023-04-03T21:53:25;12.75;12.00;8.75
67376;PMS7003;54261;46.086;6.588;2023-04-03T21:58:30;10.25;9.25;5.00
67376;PMS7003;54261;46.086;6.588;2023-04-03T22:03:33;15.50;13.50;9.75
67376;PMS7003;54261;46.086;6.588;2023-04-03T22:08:35;12.25;10.00;7.00
67376;PMS7003;54261;46.086;6.588;2023-04-03T22:13:37;9.50;9.50;8.25
67376;PMS7003;54261;46.086;6.588;2023-04-03T22:18:39;14.25;13.25;10.25
67376;PMS7003;54261;46.086;6.588;2023-04-03T22:23:41;12.25;10.25;7.00
67376;PMS7003;54261;46.086;6.588;2023-04-03T22:28:44;15.75;14.50;12.00
67376;PMS7003;54261;46.086;6.588;2023-04-03T22:33:47;16.75;14.25;10.25
67376;PMS7003;54261;46.086;6.588;2023-04-03T22:38:49;16.00;12.75;8.75
67376;PMS7003;54261;46.086;6.588;2023-04-03T22:43:50;18.75;17.00;12.00
67376;PMS7003;54261;46.086;6.588;2023-04-03T22:48:52;15.00;12.00;8.00
67376;PMS7003;54261;46.086;6.588;2023-04-03T22:53:54;16.75;13.75;11.25
67376;PMS7003;54261;46.086;6.588;2023-04-03T22:58:56;18.00;15.00;11.50
67376;PMS7003;54261;46.086;6.588;2023-04-03T23:03:58;13.25;13.00;10.25
67376;PMS7003;54261;46.086;6.588;2023-04-03T23:09:00;13.25;13.25;9.00
67376;PMS7003;54261;46.086;6.588;2023-04-03T23:14:02;11.25;11.25;8.50
67376;PMS7003;54261;46.086;6.588;2023-04-03T23:19:04;19.00;15.00;10.75
67376;PMS7003;54261;46.086;6.588;2023-04-03T23:24:07;13.75;13.75;10.75
67376;PMS7003;54261;46.086;6.588;2023-04-03T23:29:09;17.25;13.25;9.75
67376;PMS7003;54261;46.086;6.588;2023-04-03T23:34:11;20.00;17.75;10.00
67376;PMS7003;54261;46.086;6.588;2023-04-03T23:39:13;14.50;12.75;9.75
67376;PMS7003;54261;46.086;6.588;2023-04-03T23:44:15;21.50;16.75;11.75
67376;PMS7003;54261;46.086;6.588;2023-04-03T23:49:17;11.25;11.25;9.25
67376;PMS7003;54261;46.086;6.588;2023-04-03T23:54:19;14.25;13.00;9.50
67376;PMS7003;54261;46.086;6.588;2023-04-03T23:59:21;17.00;13.25;9.50
